createdAt,value
2018-10-18T00:01:32.486Z,28.63
2018-10-18T00:04:01.091Z,27.67
2018-10-18T00:06:29.551Z,29.30
2018-10-18T00:08:58.090Z,29.53
2018-10-18T00:11:26.455Z,30.30
2018-10-18T00:13:54.827Z,29.47
2018-10-18T00:16:23.100Z,28.40
2018-10-18T00:18:51.491Z,29.03
2018-10-18T00:21:19.772Z,29.30
2018-10-18T00:23:48.138Z,28.90
2018-10-18T00:26:16.497Z,30.73
2018-10-18T00:28:44.690Z,28.00
2018-10-18T00:31:13.004Z,29.40
2018-10-18T00:33:41.460Z,29.00
2018-10-18T00:36:09.783Z,29.40
2018-10-18T00:38:37.990Z,29.67
2018-10-18T00:41:06.307Z,29.10
2018-10-18T00:43:34.558Z,29.97
2018-10-18T00:46:02.901Z,28.43
2018-10-18T00:48:31.344Z,29.70
2018-10-18T00:50:59.639Z,28.73
2018-10-18T00:53:27.942Z,27.93
2018-10-18T00:55:56.424Z,28.30
2018-10-18T00:58:24.738Z,28.07
2018-10-18T01:00:52.978Z,30.33
2018-10-18T01:03:21.241Z,29.27
2018-10-18T01:05:49.603Z,28.37
2018-10-18T01:08:17.929Z,28.63
2018-10-18T01:10:46.167Z,27.63
2018-10-18T01:13:14.401Z,27.83
2018-10-18T01:15:42.640Z,27.63
2018-10-18T01:18:11.079Z,28.67
2018-10-18T01:20:39.282Z,28.37
2018-10-18T01:23:08.223Z,28.77
2018-10-18T01:25:36.470Z,29.27
2018-10-18T01:28:04.752Z,28.87
2018-10-18T01:30:33.029Z,27.13
2018-10-18T01:33:01.359Z,26.97
2018-10-18T01:35:30.265Z,25.77
2018-10-18T01:37:58.508Z,27.67
2018-10-18T01:40:26.739Z,27.57
2018-10-18T01:42:55.025Z,28.13
2018-10-18T01:45:23.314Z,26.53
2018-10-18T01:47:51.790Z,26.10
2018-10-18T01:50:20.041Z,28.17
2018-10-18T01:52:48.318Z,25.93
2018-10-18T01:55:16.912Z,27.90
2018-10-18T01:57:45.173Z,28.13
2018-10-18T02:00:13.511Z,27.20
2018-10-18T02:02:41.694Z,29.57
2018-10-18T02:05:09.964Z,28.17
2018-10-18T02:07:38.277Z,28.47
2018-10-18T02:10:06.550Z,28.33
2018-10-18T02:12:35.137Z,28.67
2018-10-18T02:15:03.414Z,28.17
2018-10-18T02:17:31.825Z,30.33
2018-10-18T02:20:06.868Z,28.30
2018-10-18T02:22:35.237Z,30.37
2018-10-18T02:25:03.602Z,30.27
2018-10-18T02:27:31.824Z,31.27
2018-10-18T02:30:00.231Z,30.10
2018-10-18T02:32:28.463Z,31.13
2018-10-18T02:35:03.401Z,31.97
2018-10-18T02:37:32.081Z,33.20
2018-10-18T02:40:00.365Z,34.33
2018-10-18T02:42:28.626Z,38.07
2018-10-18T02:44:56.982Z,39.80
2018-10-18T02:47:25.750Z,41.47
2018-10-18T02:49:54.046Z,44.23
2018-10-18T02:52:22.431Z,42.63
2018-10-18T02:54:50.682Z,44.40
2018-10-18T02:57:18.993Z,43.73
2018-10-18T02:59:47.291Z,43.20
2018-10-18T03:02:15.594Z,46.30
2018-10-18T03:04:43.924Z,47.10
2018-10-18T03:07:12.211Z,45.03
2018-10-18T03:09:40.537Z,46.37
2018-10-18T03:12:08.903Z,48.33
2018-10-18T03:14:37.104Z,47.80
2018-10-18T03:17:05.486Z,49.33
2018-10-18T03:19:33.702Z,48.63
2018-10-18T03:22:01.961Z,50.30
2018-10-18T03:24:30.286Z,48.57
2018-10-18T03:26:58.562Z,48.10
2018-10-18T03:29:33.078Z,46.20
2018-10-18T03:32:01.345Z,46.53
2018-10-18T03:34:29.583Z,43.37
2018-10-18T03:36:57.859Z,44.60
2018-10-18T03:39:26.062Z,44.47
2018-10-18T03:41:54.312Z,43.43
2018-10-18T03:44:22.557Z,40.50
2018-10-18T03:46:50.797Z,40.70
2018-10-18T03:49:19.066Z,41.23
2018-10-18T03:51:47.665Z,41.63
2018-10-18T03:54:16.029Z,41.13
2018-10-18T03:56:44.222Z,41.67
2018-10-18T03:59:12.454Z,41.40
2018-10-18T04:01:40.720Z,40.87
2018-10-18T04:04:08.934Z,39.10
2018-10-18T04:06:37.168Z,39.77
2018-10-18T04:09:07.414Z,40.77
2018-10-18T04:11:35.658Z,40.33
2018-10-18T04:14:03.974Z,40.93
2018-10-18T04:16:32.205Z,40.10
2018-10-18T04:19:00.401Z,42.10
2018-10-18T04:21:28.689Z,40.07
2018-10-18T04:23:57.109Z,38.83
2018-10-18T04:26:25.326Z,39.37
2018-10-18T04:28:53.599Z,40.53
2018-10-18T04:31:21.871Z,36.83
2018-10-18T04:33:50.181Z,35.67
2018-10-18T04:36:18.535Z,38.97
2018-10-18T04:38:46.726Z,38.30
2018-10-18T04:41:14.997Z,38.40
2018-10-18T04:43:43.360Z,38.33
2018-10-18T04:46:11.664Z,38.10
2018-10-18T04:48:39.983Z,36.53
2018-10-18T04:51:08.211Z,36.37
2018-10-18T04:53:36.453Z,34.90
2018-10-18T04:56:04.712Z,35.73
2018-10-18T04:58:33.018Z,34.97
2018-10-18T05:01:01.383Z,35.57
2018-10-18T05:03:29.906Z,35.10
2018-10-18T05:05:59.830Z,35.57
2018-10-18T05:08:28.562Z,33.67
2018-10-18T05:10:56.863Z,34.30
2018-10-18T05:13:25.419Z,32.83
2018-10-18T05:15:53.914Z,33.20
2018-10-18T05:18:22.914Z,34.17
2018-10-18T05:20:51.191Z,33.07
2018-10-18T05:23:19.470Z,34.77
2018-10-18T05:25:50.392Z,31.23
2018-10-18T05:28:18.738Z,32.17
2018-10-18T05:30:47.279Z,28.87
2018-10-18T05:33:16.286Z,31.23
2018-10-18T05:35:44.763Z,31.47
2018-10-18T05:38:13.018Z,29.40
2018-10-18T05:40:41.301Z,29.13
2018-10-18T05:43:09.622Z,30.13
2018-10-18T05:45:38.081Z,29.50
2018-10-18T05:48:06.372Z,28.53
2018-10-18T05:50:34.670Z,28.53
2018-10-18T05:53:03.224Z,30.30
2018-10-18T05:55:31.418Z,28.87
2018-10-18T05:57:59.625Z,28.57
2018-10-18T06:00:27.880Z,29.03
2018-10-18T06:02:56.095Z,26.87
2018-10-18T06:05:24.937Z,28.50
2018-10-18T06:07:53.655Z,27.77
2018-10-18T06:10:33.333Z,29.40
2018-10-18T06:13:02.038Z,28.17
2018-10-18T06:15:30.542Z,27.27
2018-10-18T06:18:01.872Z,27.03
2018-10-18T06:20:30.128Z,26.83
2018-10-18T06:22:58.475Z,26.80
2018-10-18T06:25:26.609Z,27.53
2018-10-18T06:27:54.863Z,26.13
2018-10-18T06:30:23.319Z,28.30
2018-10-18T06:32:51.546Z,28.00
2018-10-18T06:35:19.778Z,26.57
2018-10-18T06:37:47.993Z,26.27
2018-10-18T06:40:17.608Z,26.70
2018-10-18T06:42:45.959Z,27.23
2018-10-18T06:45:15.463Z,26.77
2018-10-18T06:47:44.456Z,26.23
2018-10-18T06:50:14.417Z,24.77
2018-10-18T06:52:42.696Z,27.90
2018-10-18T06:55:11.099Z,27.17
2018-10-18T06:57:40.038Z,28.43
2018-10-18T07:00:10.697Z,28.13
2018-10-18T07:02:39.015Z,29.03
2018-10-18T07:05:09.595Z,28.73
2018-10-18T07:07:37.959Z,28.67
2018-10-18T07:10:07.104Z,30.17
2018-10-18T07:12:36.371Z,29.23
2018-10-18T07:15:05.563Z,29.20
2018-10-18T07:17:34.444Z,30.97
2018-10-18T07:20:02.840Z,29.83
2018-10-18T07:22:31.451Z,29.70
2018-10-18T07:24:59.973Z,31.43
2018-10-18T07:27:28.371Z,30.03
2018-10-18T07:29:56.853Z,29.07
2018-10-18T07:32:25.494Z,29.27
2018-10-18T07:34:54.009Z,27.33
2018-10-18T07:37:22.247Z,27.03
2018-10-18T07:39:50.742Z,28.30
2018-10-18T07:42:19.199Z,28.53
2018-10-18T07:44:47.420Z,27.20
2018-10-18T07:47:15.777Z,26.63
2018-10-18T07:49:44.167Z,28.27
2018-10-18T07:52:12.508Z,27.00
2018-10-18T07:54:40.837Z,26.33
2018-10-18T07:57:09.202Z,26.87
2018-10-18T07:59:37.486Z,26.27
2018-10-18T08:02:05.842Z,25.60
2018-10-18T08:04:34.729Z,26.57
2018-10-18T08:07:03.104Z,26.57
2018-10-18T08:09:31.521Z,26.40
2018-10-18T08:11:59.866Z,26.60
2018-10-18T08:14:29.613Z,26.43
2018-10-18T08:16:57.941Z,26.23
2018-10-18T08:19:26.216Z,27.27
2018-10-18T08:21:56.612Z,34.03
2018-10-18T08:24:25.464Z,26.77
2018-10-18T08:26:53.783Z,24.73
2018-10-18T08:29:22.317Z,25.63
2018-10-18T08:31:50.661Z,24.60
2018-10-18T08:34:18.920Z,23.27
2018-10-18T08:36:47.243Z,25.27
2018-10-18T08:39:15.604Z,25.33
2018-10-18T08:41:43.898Z,23.63
2018-10-18T08:44:12.257Z,22.87
2018-10-18T08:46:40.578Z,28.80
2018-10-18T08:49:08.972Z,23.57
2018-10-18T08:51:37.176Z,25.13
2018-10-18T08:54:05.463Z,24.17
2018-10-18T08:56:33.758Z,23.37
2018-10-18T08:59:02.148Z,22.77
2018-10-18T09:01:30.447Z,22.40
2018-10-18T09:03:58.763Z,23.10
2018-10-18T09:06:28.357Z,21.23
2018-10-18T09:08:56.800Z,22.83
2018-10-18T09:11:25.123Z,22.20
2018-10-18T09:13:53.358Z,22.77
2018-10-18T09:16:21.778Z,23.30
2018-10-18T09:18:50.125Z,23.50
2018-10-18T09:21:18.351Z,21.30
2018-10-18T09:23:47.630Z,22.43
2018-10-18T09:26:15.888Z,23.00
2018-10-18T09:28:44.289Z,23.37
2018-10-18T09:31:12.664Z,23.33
2018-10-18T09:33:40.862Z,23.63
2018-10-18T09:36:09.153Z,25.43
2018-10-18T09:38:37.692Z,23.53
2018-10-18T09:41:06.642Z,22.37
2018-10-18T09:43:34.895Z,24.17
2018-10-18T09:46:04.032Z,23.03
2018-10-18T09:48:32.677Z,23.53
2018-10-18T09:51:01.392Z,23.50
2018-10-18T09:53:30.804Z,22.40
2018-10-18T09:56:00.280Z,22.83
2018-10-18T09:58:29.054Z,23.07
2018-10-18T10:01:03.005Z,23.03
2018-10-18T10:03:31.265Z,21.20
2018-10-18T10:05:59.622Z,21.03
2018-10-18T10:08:27.978Z,20.50
2018-10-18T10:10:56.323Z,21.80
2018-10-18T10:13:24.734Z,20.87
2018-10-18T10:15:52.932Z,22.67
2018-10-18T10:18:21.242Z,23.50
2018-10-18T10:20:50.373Z,23.03
2018-10-18T10:23:18.682Z,22.73
2018-10-18T10:25:46.962Z,22.57
2018-10-18T10:28:15.215Z,22.90
2018-10-18T10:30:43.498Z,23.20
2018-10-18T10:33:11.815Z,24.17
2018-10-18T10:35:40.168Z,23.70
2018-10-18T10:38:08.382Z,22.90
2018-10-18T10:40:37.719Z,23.30
2018-10-18T10:43:06.340Z,23.53
2018-10-18T10:45:34.630Z,21.87
2018-10-18T10:48:02.966Z,23.57
2018-10-18T10:50:31.357Z,22.17
2018-10-18T10:52:59.616Z,22.20
2018-10-18T10:55:27.871Z,22.33
2018-10-18T10:57:56.227Z,24.27
2018-10-18T11:01:33.327Z,22.63
2018-10-18T11:04:01.734Z,23.30
2018-10-18T11:06:29.981Z,24.47
2018-10-18T11:08:58.323Z,23.10
2018-10-18T11:11:26.627Z,25.70
2018-10-18T11:13:54.893Z,22.57
2018-10-18T11:16:23.193Z,23.63
2018-10-18T11:18:51.490Z,24.07
2018-10-18T11:21:20.136Z,23.67
2018-10-18T11:23:48.312Z,22.83
2018-10-18T11:26:16.673Z,22.27
2018-10-18T11:28:45.717Z,22.00
2018-10-18T11:31:14.090Z,22.47
2018-10-18T11:33:42.388Z,21.43
2018-10-18T11:36:11.146Z,20.00
2018-10-18T11:38:43.104Z,18.80
2018-10-18T11:41:11.526Z,18.80
2018-10-18T11:43:39.882Z,21.10
2018-10-18T11:46:11.172Z,20.07
2018-10-18T11:48:39.401Z,19.10
2018-10-18T11:51:08.330Z,18.93
2018-10-18T11:53:36.615Z,19.33
2018-10-18T11:56:05.082Z,18.07
2018-10-18T11:58:33.603Z,19.90
2018-10-18T12:01:01.935Z,18.33
2018-10-18T12:03:30.216Z,18.90
2018-10-18T12:05:58.629Z,19.77
2018-10-18T12:08:26.907Z,17.90
2018-10-18T12:10:55.260Z,18.07
2018-10-18T12:13:23.571Z,16.40
2018-10-18T12:15:52.032Z,16.97
2018-10-18T12:18:20.313Z,17.33
2018-10-18T12:20:48.620Z,17.07
2018-10-18T12:23:17.797Z,16.23
2018-10-18T12:25:45.934Z,15.30
2018-10-18T12:28:14.830Z,16.17
2018-10-18T12:30:43.116Z,14.83
2018-10-18T12:33:11.414Z,14.43
2018-10-18T12:35:39.723Z,13.30
2018-10-18T12:38:08.077Z,14.30
2018-10-18T12:40:36.407Z,13.67
2018-10-18T12:43:04.651Z,23.97
2018-10-18T12:45:33.392Z,14.93
2018-10-18T12:48:01.925Z,13.03
2018-10-18T12:50:30.102Z,13.63
2018-10-18T12:52:58.459Z,13.73
2018-10-18T12:55:26.726Z,13.27
2018-10-18T12:57:55.202Z,13.80
2018-10-18T13:00:23.466Z,14.30
2018-10-18T13:02:51.802Z,13.30
2018-10-18T13:05:20.166Z,14.80
2018-10-18T13:07:49.438Z,16.00
2018-10-18T13:10:17.729Z,14.67
2018-10-18T13:12:46.084Z,15.10
2018-10-18T13:15:14.397Z,14.73
2018-10-18T13:17:42.673Z,13.47
2018-10-18T13:20:11.528Z,13.30
2018-10-18T13:22:39.996Z,14.43
2018-10-18T13:25:09.316Z,13.73
2018-10-18T13:27:37.945Z,12.73
2018-10-18T13:30:07.645Z,13.70
2018-10-18T13:32:35.774Z,12.87
2018-10-18T13:35:04.085Z,11.40
2018-10-18T13:37:32.406Z,11.83
2018-10-18T13:40:00.686Z,10.00
2018-10-18T13:42:28.973Z,9.17
2018-10-18T13:44:57.192Z,9.13
2018-10-18T13:47:25.446Z,8.37
2018-10-18T13:49:55.679Z,8.30
2018-10-18T13:52:23.964Z,7.93
2018-10-18T13:54:52.298Z,7.63
2018-10-18T13:57:20.585Z,8.13
2018-10-18T14:00:00.313Z,7.50
2018-10-18T14:02:28.637Z,7.83
2018-10-18T14:04:58.006Z,7.43
2018-10-18T14:07:26.384Z,7.90
2018-10-18T14:09:54.619Z,8.70
2018-10-18T14:12:22.888Z,9.17
2018-10-18T14:14:51.151Z,7.90
2018-10-18T14:17:19.647Z,8.37
2018-10-18T14:19:47.720Z,8.00
2018-10-18T14:22:16.064Z,7.90
2018-10-18T14:24:44.351Z,7.30
2018-10-18T14:27:12.618Z,8.00
2018-10-18T14:29:40.982Z,7.53
2018-10-18T14:32:09.315Z,6.87
2018-10-18T14:34:37.508Z,7.20
2018-10-18T14:37:05.806Z,8.03
2018-10-18T14:39:34.166Z,8.10
2018-10-18T14:42:02.374Z,7.50
2018-10-18T14:44:30.693Z,7.70
2018-10-18T14:46:59.002Z,6.40
2018-10-18T14:49:27.166Z,6.93
2018-10-18T14:51:55.466Z,6.50
2018-10-18T14:54:23.765Z,6.40
2018-10-18T14:56:52.042Z,6.30
2018-10-18T14:59:20.869Z,5.73
2018-10-18T15:01:49.150Z,5.53
2018-10-18T15:04:17.440Z,5.57
2018-10-18T15:06:45.703Z,5.17
2018-10-18T15:09:14.033Z,5.57
2018-10-18T15:11:44.521Z,50.20
2018-10-18T15:14:13.174Z,8.77
2018-10-18T15:16:41.386Z,4.27
2018-10-18T15:19:09.642Z,4.00
2018-10-18T15:21:37.987Z,4.27
2018-10-18T15:24:06.292Z,3.87
2018-10-18T15:26:34.720Z,4.00
2018-10-18T15:29:02.851Z,4.03
2018-10-18T15:31:31.090Z,3.50
2018-10-18T15:33:59.295Z,3.07
2018-10-18T15:36:27.579Z,2.77
2018-10-18T15:38:56.124Z,2.90
2018-10-18T15:41:24.087Z,2.50
2018-10-18T15:43:52.432Z,3.00
2018-10-18T15:46:20.835Z,2.90
2018-10-18T15:48:49.113Z,2.77
2018-10-18T15:51:17.522Z,2.80
2018-10-18T15:53:45.636Z,2.63
2018-10-18T15:56:13.878Z,3.00
2018-10-18T15:58:42.113Z,3.10
2018-10-18T16:01:10.453Z,3.17
2018-10-18T16:03:40.506Z,3.07
2018-10-18T16:06:08.837Z,3.90
2018-10-18T16:08:37.374Z,14.33
2018-10-18T16:11:05.733Z,3.40
2018-10-18T16:13:34.835Z,3.40
2018-10-18T16:16:03.130Z,2.90
2018-10-18T16:18:31.599Z,3.27
2018-10-18T16:20:59.930Z,3.87
2018-10-18T16:23:28.307Z,3.33
2018-10-18T16:25:56.722Z,8.17
2018-10-18T16:28:25.054Z,4.13
2018-10-18T16:30:53.352Z,147.20
2018-10-18T16:33:21.805Z,8.13
2018-10-18T16:35:50.378Z,11.13
2018-10-18T16:38:18.811Z,4.20
2018-10-18T16:40:47.319Z,4.30
2018-10-18T16:43:15.683Z,5.20
2018-10-18T16:45:44.080Z,4.50
2018-10-18T16:48:12.424Z,5.00
2018-10-18T16:50:40.771Z,4.80
2018-10-18T16:53:10.027Z,4.37
2018-10-18T16:55:38.399Z,5.27
2018-10-18T16:58:06.814Z,4.57
2018-10-18T17:00:35.126Z,5.23
2018-10-18T17:03:03.926Z,5.10
2018-10-18T17:05:32.335Z,8.90
2018-10-18T17:08:00.755Z,5.00
2018-10-18T17:10:29.083Z,5.83
2018-10-18T17:12:57.807Z,6.03
2018-10-18T17:15:26.863Z,4.80
2018-10-18T17:17:55.234Z,6.07
2018-10-18T17:20:23.631Z,7.00
2018-10-18T17:22:51.906Z,5.97
2018-10-18T17:25:20.290Z,5.83
2018-10-18T17:27:48.705Z,5.93
2018-10-18T17:30:17.474Z,6.10
2018-10-18T17:32:45.666Z,6.30
2018-10-18T17:35:13.983Z,6.10
2018-10-18T17:37:42.318Z,5.90
2018-10-18T17:40:11.054Z,6.47
2018-10-18T17:42:39.434Z,5.97
2018-10-18T17:45:09.030Z,7.10
2018-10-18T17:47:38.862Z,5.43
2018-10-18T17:50:08.043Z,5.23
2018-10-18T17:52:36.633Z,5.60
2018-10-18T17:55:05.618Z,6.10
2018-10-18T17:57:34.131Z,5.93
2018-10-18T18:00:27.027Z,4.93
2018-10-18T18:03:01.691Z,9.00
2018-10-18T18:05:29.981Z,4.03
2018-10-18T18:07:58.247Z,3.90
2018-10-18T18:10:26.532Z,3.83
2018-10-18T18:12:54.824Z,4.27
2018-10-18T18:15:23.068Z,4.07
2018-10-18T18:17:51.514Z,3.97
2018-10-18T18:20:21.051Z,4.00
2018-10-18T18:22:49.701Z,4.47
2018-10-18T18:25:18.774Z,5.00
2018-10-18T18:27:47.436Z,4.37
2018-10-18T18:30:16.296Z,4.77
2018-10-18T18:32:44.855Z,4.87
2018-10-18T18:35:14.350Z,4.73
2018-10-18T18:37:42.593Z,5.00
2018-10-18T18:40:11.242Z,7.63
2018-10-18T18:42:40.255Z,5.53
2018-10-18T18:45:14.094Z,6.00
2018-10-18T18:47:42.457Z,5.60
2018-10-18T18:50:13.328Z,6.87
2018-10-18T18:52:42.072Z,5.67
2018-10-18T18:55:10.792Z,7.40
2018-10-18T18:57:39.561Z,8.10
2018-10-18T19:00:09.521Z,7.97
2018-10-18T19:02:38.125Z,8.40
2018-10-18T19:05:07.180Z,8.70
2018-10-18T19:07:35.601Z,8.30
2018-10-18T19:10:04.087Z,11.60
2018-10-18T19:12:32.317Z,11.27
2018-10-18T19:15:00.695Z,15.23
2018-10-18T19:17:28.919Z,10.83
2018-10-18T19:19:57.225Z,11.20
2018-10-18T19:22:25.501Z,11.33
2018-10-18T19:24:55.547Z,11.83
2018-10-18T19:27:23.826Z,12.93
2018-10-18T19:29:52.120Z,12.47
2018-10-18T19:32:20.363Z,12.83
2018-10-18T19:34:48.647Z,13.63
2018-10-18T19:37:16.946Z,12.77
2018-10-18T19:39:45.214Z,12.67
2018-10-18T19:42:13.485Z,14.30
2018-10-18T19:44:41.775Z,14.53
2018-10-18T19:47:10.123Z,13.60
2018-10-18T19:49:38.429Z,13.00
2018-10-18T19:52:06.805Z,15.27
2018-10-18T19:54:35.035Z,14.60
2018-10-18T19:57:03.354Z,13.53
2018-10-18T19:59:31.658Z,14.40
2018-10-18T20:02:00.103Z,14.13
2018-10-18T20:04:28.381Z,13.93
2018-10-18T20:06:56.650Z,14.47
2018-10-18T20:09:25.942Z,33.77
2018-10-18T20:11:54.201Z,20.73
2018-10-18T20:14:22.505Z,14.17
2018-10-18T20:16:50.767Z,13.87
2018-10-18T20:19:19.045Z,13.50
2018-10-18T20:21:47.764Z,14.33
2018-10-18T20:24:16.028Z,14.43
2018-10-18T20:26:44.361Z,17.50
2018-10-18T20:29:12.630Z,14.73
2018-10-18T20:31:47.289Z,14.93
2018-10-18T20:34:15.771Z,14.43
2018-10-18T20:36:43.997Z,15.27
2018-10-18T20:39:12.365Z,13.83
2018-10-18T20:41:41.426Z,13.37
2018-10-18T20:44:09.673Z,14.37
2018-10-18T20:46:39.540Z,14.03
2018-10-18T20:49:07.719Z,13.83
2018-10-18T20:51:35.959Z,13.70
2018-10-18T20:54:04.228Z,14.00
2018-10-18T20:56:32.511Z,15.57
2018-10-18T20:59:00.799Z,14.80
2018-10-18T21:01:29.377Z,14.37
2018-10-18T21:04:01.777Z,12.67
2018-10-18T21:06:30.254Z,13.43
2018-10-18T21:08:58.293Z,17.43
2018-10-18T21:11:26.571Z,13.73
2018-10-18T21:13:55.072Z,13.60
2018-10-18T21:16:23.387Z,13.73
2018-10-18T21:18:51.697Z,13.37
2018-10-18T21:21:19.963Z,13.30
2018-10-18T21:23:48.219Z,13.07
2018-10-18T21:26:22.959Z,13.07
2018-10-18T21:28:51.235Z,13.30
2018-10-18T21:31:19.600Z,14.33
2018-10-18T21:33:47.827Z,13.03
2018-10-18T21:36:16.118Z,12.67
2018-10-18T21:38:44.408Z,13.17
2018-10-18T21:41:12.825Z,12.10
2018-10-18T21:43:41.197Z,12.63
2018-10-18T21:46:09.546Z,12.63
2018-10-18T21:48:38.972Z,12.70
2018-10-18T21:51:07.320Z,12.90
2018-10-18T21:53:35.514Z,12.93
2018-10-18T21:56:03.944Z,12.90
2018-10-18T21:58:32.198Z,12.97
2018-10-18T22:01:00.414Z,12.40
2018-10-18T22:03:28.691Z,13.50
2018-10-18T22:05:56.928Z,12.77
2018-10-18T22:08:25.182Z,13.27
2018-10-18T22:10:53.462Z,15.83
2018-10-18T22:13:21.762Z,12.93
2018-10-18T22:15:50.048Z,13.20
2018-10-18T22:18:18.351Z,12.33
2018-10-18T22:20:46.565Z,13.50
2018-10-18T22:23:14.834Z,12.53
2018-10-18T22:25:43.115Z,11.43
2018-10-18T22:28:11.423Z,12.83
2018-10-18T22:30:39.714Z,12.80
2018-10-18T22:33:07.980Z,12.80
2018-10-18T22:35:36.210Z,11.87
2018-10-18T22:38:04.515Z,13.50
2018-10-18T22:40:32.795Z,13.13
2018-10-18T22:43:01.154Z,12.67
2018-10-18T22:45:29.481Z,13.00
2018-10-18T22:47:57.719Z,12.17
2018-10-18T22:50:26.480Z,12.57
2018-10-18T22:52:54.806Z,13.83
2018-10-18T22:55:23.022Z,11.60
2018-10-18T22:57:51.258Z,11.87
2018-10-18T23:00:19.466Z,12.47
2018-10-18T23:02:47.798Z,11.30
2018-10-18T23:05:16.132Z,15.57
2018-10-18T23:07:44.312Z,12.43
2018-10-18T23:10:12.542Z,11.27
2018-10-18T23:12:40.846Z,11.77
2018-10-18T23:15:09.929Z,11.80
2018-10-18T23:17:38.548Z,12.20
2018-10-18T23:20:07.765Z,11.93
2018-10-18T23:22:36.021Z,12.00
2018-10-18T23:25:04.271Z,10.40
2018-10-18T23:27:32.763Z,10.40
2018-10-18T23:30:01.007Z,15.03
2018-10-18T23:32:29.314Z,12.17
2018-10-18T23:34:57.573Z,13.07
2018-10-18T23:37:25.808Z,10.27
2018-10-18T23:39:54.032Z,9.57
2018-10-18T23:42:22.252Z,9.93
2018-10-18T23:44:50.455Z,10.20
2018-10-18T23:47:18.705Z,9.83
2018-10-18T23:49:46.980Z,10.37
2018-10-18T23:52:15.234Z,9.67
2018-10-18T23:54:43.462Z,10.33
2018-10-18T23:57:11.740Z,9.43
2018-10-18T23:59:40.562Z,9.67
